sensor_id;sensor_type;location;lat;lon;timestamp;pressure;altitude;pressure_sealevel;temperature;humidity
35704;BME280;21820;51.112;13.762;2022-10-16T00:00:26;99181.88;;;21.27;63.50
35704;BME280;21820;51.112;13.762;2022-10-16T00:02:52;99190.72;;;21.26;63.37
35704;BME280;21820;51.112;13.762;2022-10-16T00:05:17;99187.41;;;21.24;63.12
35704;BME280;21820;51.112;13.762;2022-10-16T00:07:42;99184.13;;;21.22;63.41
35704;BME280;21820;51.112;13.762;2022-10-16T00:10:07;99190.03;;;21.24;63.45
35704;BME280;21820;51.112;13.762;2022-10-16T00:12:33;99192.34;;;21.27;63.07
35704;BME280;21820;51.112;13.762;2022-10-16T00:14:58;99194.31;;;21.25;63.46
35704;BME280;21820;51.112;13.762;2022-10-16T00:17:23;99204.78;;;21.25;63.39
35704;BME280;21820;51.112;13.762;2022-10-16T00:19:48;99204.25;;;21.22;63.34
35704;BME280;21820;51.112;13.762;2022-10-16T00:22:14;99204.09;;;21.23;63.49
35704;BME280;21820;51.112;13.762;2022-10-16T00:24:39;99209.31;;;21.23;63.47
35704;BME280;21820;51.112;13.762;2022-10-16T00:27:04;99210.94;;;21.24;63.84
35704;BME280;21820;51.112;13.762;2022-10-16T00:29:29;99207.50;;;21.24;63.74
35704;BME280;21820;51.112;13.762;2022-10-16T00:31:54;99206.69;;;21.23;63.64
35704;BME280;21820;51.112;13.762;2022-10-16T00:34:20;99209.16;;;21.25;63.12
35704;BME280;21820;51.112;13.762;2022-10-16T00:36:45;99215.22;;;21.25;63.56
35704;BME280;21820;51.112;13.762;2022-10-16T00:39:10;99214.41;;;21.25;63.24
35704;BME280;21820;51.112;13.762;2022-10-16T00:41:35;99216.84;;;21.26;63.57
35704;BME280;21820;51.112;13.762;2022-10-16T00:44:02;99215.22;;;21.25;63.18
35704;BME280;21820;51.112;13.762;2022-10-16T00:49:12;99219.31;;;21.28;63.49
35704;BME280;21820;51.112;13.762;2022-10-16T00:51:43;99213.25;;;21.27;63.59
35704;BME280;21820;51.112;13.762;2022-10-16T00:54:11;99216.84;;;21.26;62.97
35704;BME280;21820;51.112;13.762;2022-10-16T00:56:38;99225.81;;;21.24;63.54
35704;BME280;21820;51.112;13.762;2022-10-16T00:59:04;99227.31;;;21.26;62.96
35704;BME280;21820;51.112;13.762;2022-10-16T01:01:31;99221.41;;;21.24;63.65
35704;BME280;21820;51.112;13.762;2022-10-16T01:03:56;99226.63;;;21.24;63.45
35704;BME280;21820;51.112;13.762;2022-10-16T01:06:23;99211.69;;;21.17;63.23
35704;BME280;21820;51.112;13.762;2022-10-16T01:08:53;99224.72;;;21.26;62.92
35704;BME280;21820;51.112;13.762;2022-10-16T01:13:58;99221.78;;;21.29;63.51
35704;BME280;21820;51.112;13.762;2022-10-16T01:16:29;99225.69;;;21.25;63.38
35704;BME280;21820;51.112;13.762;2022-10-16T01:19:11;99224.03;;;21.24;63.88
35704;BME280;21820;51.112;13.762;2022-10-16T01:21:42;99220.72;;;21.22;63.07
35704;BME280;21820;51.112;13.762;2022-10-16T01:31:39;99223.78;;;21.18;63.48
35704;BME280;21820;51.112;13.762;2022-10-16T01:34:06;99239.41;;;21.27;63.69
35704;BME280;21820;51.112;13.762;2022-10-16T01:36:42;99236.94;;;21.26;63.53
35704;BME280;21820;51.112;13.762;2022-10-16T01:39:10;99240.78;;;21.31;63.16
35704;BME280;21820;51.112;13.762;2022-10-16T01:41:38;99243.53;;;21.30;63.08
35704;BME280;21820;51.112;13.762;2022-10-16T01:44:06;99245.31;;;21.29;63.49
35704;BME280;21820;51.112;13.762;2022-10-16T01:46:34;99236.78;;;21.27;63.79
35704;BME280;21820;51.112;13.762;2022-10-16T01:49:00;99238.59;;;21.27;63.13
35704;BME280;21820;51.112;13.762;2022-10-16T01:51:27;99235.53;;;21.31;63.20
35704;BME280;21820;51.112;13.762;2022-10-16T01:53:54;99232.25;;;21.29;63.23
35704;BME280;21820;51.112;13.762;2022-10-16T01:56:20;99228.94;;;21.27;63.62
35704;BME280;21820;51.112;13.762;2022-10-16T01:59:33;99220.84;;;21.30;63.69
35704;BME280;21820;51.112;13.762;2022-10-16T02:01:33;99223.88;;;21.26;62.91
35704;BME280;21820;51.112;13.762;2022-10-16T02:04:02;99231.41;;;21.29;63.83
35704;BME280;21820;51.112;13.762;2022-10-16T02:06:28;99239.41;;;21.27;63.18
35704;BME280;21820;51.112;13.762;2022-10-16T02:08:54;99249.88;;;21.27;63.68
35704;BME280;21820;51.112;13.762;2022-10-16T02:11:20;99248.53;;;21.23;63.25
35704;BME280;21820;51.112;13.762;2022-10-16T02:13:46;99239.16;;;21.21;63.76
35704;BME280;21820;51.112;13.762;2022-10-16T02:16:13;99249.88;;;21.27;63.20
35704;BME280;21820;51.112;13.762;2022-10-16T02:18:39;99248.38;;;21.25;63.13
35704;BME280;21820;51.112;13.762;2022-10-16T02:21:14;99258.41;;;21.29;63.61
35704;BME280;21820;51.112;13.762;2022-10-16T02:23:45;99248.22;;;21.26;63.47
35704;BME280;21820;51.112;13.762;2022-10-16T02:26:13;99256.75;;;21.28;63.61
35704;BME280;21820;51.112;13.762;2022-10-16T02:28:42;99257.72;;;21.27;63.79
35704;BME280;21820;51.112;13.762;2022-10-16T02:31:10;99251.81;;;21.25;63.87
35704;BME280;21820;51.112;13.762;2022-10-16T02:33:36;99259.78;;;21.24;63.72
35704;BME280;21820;51.112;13.762;2022-10-16T02:36:03;99257.84;;;21.26;63.69
35704;BME280;21820;51.112;13.762;2022-10-16T02:38:29;99254.28;;;21.27;63.46
35704;BME280;21820;51.112;13.762;2022-10-16T02:40:55;99230.94;;;21.16;63.46
35704;BME280;21820;51.112;13.762;2022-10-16T02:43:21;99255.69;;;21.21;63.43
35704;BME280;21820;51.112;13.762;2022-10-16T02:45:46;99248.16;;;21.18;63.52
35704;BME280;21820;51.112;13.762;2022-10-16T02:48:11;99265.56;;;21.27;63.54
35704;BME280;21820;51.112;13.762;2022-10-16T02:50:37;99245.53;;;21.18;63.50
35704;BME280;21820;51.112;13.762;2022-10-16T02:53:02;99248.91;;;21.28;63.75
35704;BME280;21820;51.112;13.762;2022-10-16T02:55:27;99248.22;;;21.26;63.95
35704;BME280;21820;51.112;13.762;2022-10-16T02:57:53;99253.47;;;21.26;63.71
35704;BME280;21820;51.112;13.762;2022-10-16T03:00:18;99233.16;;;21.20;63.31
35704;BME280;21820;51.112;13.762;2022-10-16T03:02:44;99247.78;;;21.31;63.49
35704;BME280;21820;51.112;13.762;2022-10-16T03:05:09;99244.00;;;21.25;63.53
35704;BME280;21820;51.112;13.762;2022-10-16T03:07:35;99233.53;;;21.25;63.54
35704;BME280;21820;51.112;13.762;2022-10-16T03:10:00;99243.53;;;21.30;63.54
35704;BME280;21820;51.112;13.762;2022-10-16T03:12:26;99242.72;;;21.29;63.59
35704;BME280;21820;51.112;13.762;2022-10-16T03:14:52;99230.38;;;21.22;63.26
35704;BME280;21820;51.112;13.762;2022-10-16T03:17:17;99255.09;;;21.27;63.16
35704;BME280;21820;51.112;13.762;2022-10-16T03:19:42;99237.38;;;21.21;63.10
35704;BME280;21820;51.112;13.762;2022-10-16T03:22:08;99253.16;;;21.29;63.54
35704;BME280;21820;51.112;13.762;2022-10-16T03:24:33;99259.22;;;21.30;63.19
35704;BME280;21820;51.112;13.762;2022-10-16T03:26:58;99254.69;;;21.32;63.41
35704;BME280;21820;51.112;13.762;2022-10-16T03:29:23;99261.31;;;21.26;63.73
35704;BME280;21820;51.112;13.762;2022-10-16T03:31:50;99261.16;;;21.28;63.49
35704;BME280;21820;51.112;13.762;2022-10-16T03:34:15;99269.84;;;21.28;63.64
35704;BME280;21820;51.112;13.762;2022-10-16T03:36:41;99268.16;;;21.27;63.91
35704;BME280;21820;51.112;13.762;2022-10-16T03:39:06;99271.09;;;21.24;63.93
35704;BME280;21820;51.112;13.762;2022-10-16T03:41:31;99263.09;;;21.26;63.04
35704;BME280;21820;51.112;13.762;2022-10-16T03:43:56;99263.91;;;21.26;63.54
35704;BME280;21820;51.112;13.762;2022-10-16T03:46:22;99265.56;;;21.27;63.69
35704;BME280;21820;51.112;13.762;2022-10-16T03:48:47;99269.84;;;21.28;63.78
35704;BME280;21820;51.112;13.762;2022-10-16T03:51:13;99270.53;;;21.30;63.51
35704;BME280;21820;51.112;13.762;2022-10-16T03:53:38;99272.44;;;21.28;63.46
35704;BME280;21820;51.112;13.762;2022-10-16T03:56:03;99269.50;;;21.14;63.87
35704;BME280;21820;51.112;13.762;2022-10-16T03:58:29;99288.44;;;21.25;63.74
35704;BME280;21820;51.112;13.762;2022-10-16T04:00:54;99265.75;;;21.16;63.86
35704;BME280;21820;51.112;13.762;2022-10-16T04:03:19;99276.59;;;21.21;63.43
35704;BME280;21820;51.112;13.762;2022-10-16T04:05:45;99285.13;;;21.23;63.68
35704;BME280;21820;51.112;13.762;2022-10-16T04:08:10;99283.06;;;21.27;63.88
35704;BME280;21820;51.112;13.762;2022-10-16T04:10:35;99279.59;;;21.26;63.37
35704;BME280;21820;51.112;13.762;2022-10-16T04:13:00;99293.66;;;21.25;63.27
35704;BME280;21820;51.112;13.762;2022-10-16T04:15:25;99291.69;;;21.27;63.47
35704;BME280;21820;51.112;13.762;2022-10-16T04:17:51;99284.31;;;21.23;63.28
35704;BME280;21820;51.112;13.762;2022-10-16T04:20:17;99291.44;;;21.30;63.58
35704;BME280;21820;51.112;13.762;2022-10-16T04:22:42;99300.22;;;21.29;63.53
35704;BME280;21820;51.112;13.762;2022-10-16T04:25:07;99299.94;;;21.32;63.20
35704;BME280;21820;51.112;13.762;2022-10-16T04:27:33;99300.09;;;21.31;63.27
35704;BME280;21820;51.112;13.762;2022-10-16T04:29:58;99305.47;;;21.29;63.70
35704;BME280;21820;51.112;13.762;2022-10-16T04:32:24;99293.38;;;21.28;63.82
35704;BME280;21820;51.112;13.762;2022-10-16T04:34:49;99301.91;;;21.30;63.35
35704;BME280;21820;51.112;13.762;2022-10-16T04:37:14;99305.59;;;21.28;63.41
35704;BME280;21820;51.112;13.762;2022-10-16T04:39:39;99311.53;;;21.30;63.02
35704;BME280;21820;51.112;13.762;2022-10-16T04:42:05;99317.84;;;21.27;63.20
35704;BME280;21820;51.112;13.762;2022-10-16T04:44:30;99313.75;;;21.25;64.13
35704;BME280;21820;51.112;13.762;2022-10-16T04:46:55;99294.22;;;21.19;63.20
35704;BME280;21820;51.112;13.762;2022-10-16T04:49:20;99301.91;;;21.30;63.83
35704;BME280;21820;51.112;13.762;2022-10-16T04:51:46;99295.34;;;21.17;63.37
35704;BME280;21820;51.112;13.762;2022-10-16T04:54:11;99305.47;;;21.29;63.36
35704;BME280;21820;51.112;13.762;2022-10-16T04:56:36;99304.13;;;21.25;64.21
35704;BME280;21820;51.112;13.762;2022-10-16T04:59:08;99297.91;;;21.26;63.93
35704;BME280;21820;51.112;13.762;2022-10-16T05:01:33;99307.38;;;21.27;63.74
35704;BME280;21820;51.112;13.762;2022-10-16T05:03:59;99299.69;;;21.26;64.15
35704;BME280;21820;51.112;13.762;2022-10-16T05:06:24;99309.34;;;21.25;63.52
35704;BME280;21820;51.112;13.762;2022-10-16T05:08:49;99307.38;;;21.27;64.08
35704;BME280;21820;51.112;13.762;2022-10-16T05:11:14;99309.34;;;21.25;63.99
35704;BME280;21820;51.112;13.762;2022-10-16T05:13:39;99312.63;;;21.27;63.94
35704;BME280;21820;51.112;13.762;2022-10-16T05:16:05;99321.44;;;21.26;63.72
35704;BME280;21820;51.112;13.762;2022-10-16T05:18:30;99313.59;;;21.26;63.92
35704;BME280;21820;51.112;13.762;2022-10-16T05:20:55;99316.75;;;21.30;64.09
35704;BME280;21820;51.112;13.762;2022-10-16T05:23:20;99318.53;;;21.29;64.01
35704;BME280;21820;51.112;13.762;2022-10-16T05:25:52;99321.97;;;21.30;63.65
35704;BME280;21820;51.112;13.762;2022-10-16T05:28:18;99327.75;;;21.33;63.83
35704;BME280;21820;51.112;13.762;2022-10-16T05:30:43;99332.44;;;21.30;63.36
35704;BME280;21820;51.112;13.762;2022-10-16T05:33:09;99333.53;;;21.27;63.25
35704;BME280;21820;51.112;13.762;2022-10-16T05:35:34;99332.72;;;21.27;63.98
35704;BME280;21820;51.112;13.762;2022-10-16T05:37:59;99320.47;;;21.27;63.45
35704;BME280;21820;51.112;13.762;2022-10-16T05:40:24;99321.16;;;21.29;63.35
35704;BME280;21820;51.112;13.762;2022-10-16T05:42:50;99323.06;;;21.27;63.44
35704;BME280;21820;51.112;13.762;2022-10-16T05:45:19;99323.06;;;21.27;63.81
35704;BME280;21820;51.112;13.762;2022-10-16T05:47:44;99334.22;;;21.29;63.58
35704;BME280;21820;51.112;13.762;2022-10-16T05:50:09;99333.53;;;21.27;63.51
35704;BME280;21820;51.112;13.762;2022-10-16T05:52:35;99344.00;;;21.27;63.34
35704;BME280;21820;51.112;13.762;2022-10-16T05:55:00;99351.97;;;21.26;63.65
35704;BME280;21820;51.112;13.762;2022-10-16T05:57:25;99366.59;;;21.28;63.32
35704;BME280;21820;51.112;13.762;2022-10-16T05:59:51;99363.66;;;21.31;63.26
35704;BME280;21820;51.112;13.762;2022-10-16T06:02:16;99354.19;;;21.30;62.99
35704;BME280;21820;51.112;13.762;2022-10-16T06:04:41;99364.91;;;21.27;64.03
35704;BME280;21820;51.112;13.762;2022-10-16T06:07:07;99361.88;;;21.32;64.00
35704;BME280;21820;51.112;13.762;2022-10-16T06:09:32;99360.22;;;21.31;63.63
35704;BME280;21820;51.112;13.762;2022-10-16T06:11:57;99364.66;;;21.30;63.22
35704;BME280;21820;51.112;13.762;2022-10-16T06:14:23;99368.91;;;21.31;63.90
35704;BME280;21820;51.112;13.762;2022-10-16T06:16:48;99376.34;;;21.26;64.03
35704;BME280;21820;51.112;13.762;2022-10-16T06:19:13;99380.59;;;21.27;63.96
35704;BME280;21820;51.112;13.762;2022-10-16T06:21:40;99378.69;;;21.29;64.00
35704;BME280;21820;51.112;13.762;2022-10-16T06:24:05;99388.28;;;21.29;63.32
35704;BME280;21820;51.112;13.762;2022-10-16T06:26:31;99390.81;;;21.30;63.49
35704;BME280;21820;51.112;13.762;2022-10-16T06:28:57;99399.59;;;21.29;63.98
35704;BME280;21820;51.112;13.762;2022-10-16T06:31:22;99394.66;;;21.26;63.92
35704;BME280;21820;51.112;13.762;2022-10-16T06:33:50;99393.00;;;21.25;63.49
35704;BME280;21820;51.112;13.762;2022-10-16T06:36:16;99392.72;;;21.28;64.03
35704;BME280;21820;51.112;13.762;2022-10-16T06:38:42;99394.66;;;21.26;63.86
35704;BME280;21820;51.112;13.762;2022-10-16T06:41:08;99394.06;;;21.32;63.58
35704;BME280;21820;51.112;13.762;2022-10-16T06:43:34;99390.00;;;21.20;63.84
35704;BME280;21820;51.112;13.762;2022-10-16T06:46:03;99406.50;;;21.30;63.46
35704;BME280;21820;51.112;13.762;2022-10-16T06:48:28;99415.00;;;21.32;63.68
35704;BME280;21820;51.112;13.762;2022-10-16T06:53:26;99397.16;;;21.18;63.84
35704;BME280;21820;51.112;13.762;2022-10-16T06:55:51;99415.00;;;21.32;63.81
35704;BME280;21820;51.112;13.762;2022-10-16T06:58:16;99424.09;;;21.28;64.04
35704;BME280;21820;51.112;13.762;2022-10-16T07:00:41;99431.66;;;21.31;63.39
35704;BME280;21820;51.112;13.762;2022-10-16T07:03:07;99425.75;;;21.29;63.25
35704;BME280;21820;51.112;13.762;2022-10-16T07:05:36;99431.81;;;21.30;63.68
35704;BME280;21820;51.112;13.762;2022-10-16T07:08:02;99436.34;;;21.28;64.11
35704;BME280;21820;51.112;13.762;2022-10-16T07:10:30;99439.50;;;21.31;63.50
35704;BME280;21820;51.112;13.762;2022-10-16T07:12:55;99435.38;;;21.29;63.61
35704;BME280;21820;51.112;13.762;2022-10-16T07:15:20;99435.50;;;21.27;63.89
35704;BME280;21820;51.112;13.762;2022-10-16T07:17:46;99446.94;;;21.26;63.95
35704;BME280;21820;51.112;13.762;2022-10-16T07:20:11;99433.47;;;21.21;63.53
35704;BME280;21820;51.112;13.762;2022-10-16T07:22:36;99455.47;;;21.28;63.38
35704;BME280;21820;51.112;13.762;2022-10-16T07:25:01;99462.34;;;21.29;63.49
35704;BME280;21820;51.112;13.762;2022-10-16T07:27:27;99467.56;;;21.29;64.06
35704;BME280;21820;51.112;13.762;2022-10-16T07:29:53;99468.25;;;21.31;63.25
35704;BME280;21820;51.112;13.762;2022-10-16T07:32:18;99467.56;;;21.29;63.28
35704;BME280;21820;51.112;13.762;2022-10-16T07:34:43;99471.16;;;21.28;64.21
35704;BME280;21820;51.112;13.762;2022-10-16T07:37:08;99481.91;;;21.25;63.48
35704;BME280;21820;51.112;13.762;2022-10-16T07:39:34;99486.03;;;21.28;64.07
35704;BME280;21820;51.112;13.762;2022-10-16T07:41:59;99495.41;;;21.30;63.68
35704;BME280;21820;51.112;13.762;2022-10-16T07:44:24;99484.63;;;21.24;64.16
35704;BME280;21820;51.112;13.762;2022-10-16T07:46:49;99489.31;;;21.30;63.48
35704;BME280;21820;51.112;13.762;2022-10-16T07:49:14;99494.69;;;21.28;63.58
35704;BME280;21820;51.112;13.762;2022-10-16T07:51:40;99490.41;;;21.27;63.30
35704;BME280;21820;51.112;13.762;2022-10-16T07:54:05;99497.31;;;21.28;63.45
35704;BME280;21820;51.112;13.762;2022-10-16T07:56:30;99503.34;;;21.29;64.01
35704;BME280;21820;51.112;13.762;2022-10-16T07:58:55;99505.31;;;21.27;63.88
35704;BME280;21820;51.112;13.762;2022-10-16T08:01:21;99498.13;;;21.29;63.64
35704;BME280;21820;51.112;13.762;2022-10-16T08:03:50;99503.34;;;21.29;63.48
35704;BME280;21820;51.112;13.762;2022-10-16T08:06:16;99493.59;;;21.31;63.84
35704;BME280;21820;51.112;13.762;2022-10-16T08:08:41;99485.19;;;21.27;64.21
35704;BME280;21820;51.112;13.762;2022-10-16T08:11:06;99478.03;;;21.29;64.25
35704;BME280;21820;51.112;13.762;2022-10-16T08:13:33;99475.56;;;21.28;64.20
35704;BME280;21820;51.112;13.762;2022-10-16T08:15:58;99485.19;;;21.27;63.75
35704;BME280;21820;51.112;13.762;2022-10-16T08:18:24;99486.84;;;21.28;64.03
35704;BME280;21820;51.112;13.762;2022-10-16T08:20:56;99493.72;;;21.29;63.59
35704;BME280;21820;51.112;13.762;2022-10-16T08:23:22;99485.34;;;21.26;63.39
35704;BME280;21820;51.112;13.762;2022-10-16T08:25:47;99495.09;;;21.33;63.39
35704;BME280;21820;51.112;13.762;2022-10-16T08:28:12;99490.16;;;21.30;63.59
35704;BME280;21820;51.112;13.762;2022-10-16T08:30:38;99494.56;;;21.30;63.60
35704;BME280;21820;51.112;13.762;2022-10-16T08:33:03;99498.13;;;21.29;64.05
35704;BME280;21820;51.112;13.762;2022-10-16T08:35:28;99498.53;;;21.24;64.01
35704;BME280;21820;51.112;13.762;2022-10-16T08:37:54;99502.53;;;21.28;63.51
35704;BME280;21820;51.112;13.762;2022-10-16T08:40:20;99507.78;;;21.28;64.06
35704;BME280;21820;51.112;13.762;2022-10-16T08:42:58;99511.09;;;21.30;63.69
35704;BME280;21820;51.112;13.762;2022-10-16T08:45:41;99513.00;;;21.28;63.51
35704;BME280;21820;51.112;13.762;2022-10-16T08:50:35;99517.94;;;21.31;63.64
35704;BME280;21820;51.112;13.762;2022-10-16T08:53:01;99500.72;;;21.29;63.70
35704;BME280;21820;51.112;13.762;2022-10-16T08:55:49;99498.94;;;21.29;63.49
35704;BME280;21820;51.112;13.762;2022-10-16T08:58:22;99506.66;;;21.31;63.71
35704;BME280;21820;51.112;13.762;2022-10-16T09:00:53;99497.03;;;21.31;63.42
35704;BME280;21820;51.112;13.762;2022-10-16T09:03:24;99499.66;;;21.31;63.84
35704;BME280;21820;51.112;13.762;2022-10-16T09:17:50;99493.19;;;21.26;64.21
35704;BME280;21820;51.112;13.762;2022-10-16T09:19:53;99465.13;;;21.18;63.58
35704;BME280;21820;51.112;13.762;2022-10-16T09:22:21;99492.09;;;21.28;63.85
35704;BME280;21820;51.112;13.762;2022-10-16T09:24:50;99514.66;;;21.29;63.79
35704;BME280;21820;51.112;13.762;2022-10-16T09:27:15;99514.66;;;21.29;63.45
35704;BME280;21820;51.112;13.762;2022-10-16T09:29:41;99514.66;;;21.29;63.67
35704;BME280;21820;51.112;13.762;2022-10-16T09:32:11;99501.44;;;21.21;63.50
35704;BME280;21820;51.112;13.762;2022-10-16T09:34:39;99520.72;;;21.30;63.48
35704;BME280;21820;51.112;13.762;2022-10-16T09:37:11;99519.03;;;21.29;63.45
35704;BME280;21820;51.112;13.762;2022-10-16T09:39:49;99530.34;;;21.29;63.57
35704;BME280;21820;51.112;13.762;2022-10-16T09:42:18;99525.09;;;21.29;63.57
35704;BME280;21820;51.112;13.762;2022-10-16T09:44:47;99525.38;;;21.26;64.03
35704;BME280;21820;51.112;13.762;2022-10-16T09:47:15;99531.31;;;21.28;63.51
35704;BME280;21820;51.112;13.762;2022-10-16T09:52:16;99526.06;;;21.28;63.96
35704;BME280;21820;51.112;13.762;2022-10-16T09:54:50;99531.84;;;21.32;63.68
35704;BME280;21820;51.112;13.762;2022-10-16T09:57:15;99543.53;;;21.28;63.56
35704;BME280;21820;51.112;13.762;2022-10-16T09:59:47;99536.25;;;21.31;63.64
35704;BME280;21820;51.112;13.762;2022-10-16T10:02:13;99544.38;;;21.28;63.73
35704;BME280;21820;51.112;13.762;2022-10-16T10:04:50;99551.25;;;21.29;63.93
35704;BME280;21820;51.112;13.762;2022-10-16T10:07:35;99531.69;;;21.24;63.65
35704;BME280;21820;51.112;13.762;2022-10-16T10:10:04;99540.78;;;21.29;63.44
35704;BME280;21820;51.112;13.762;2022-10-16T10:12:30;99547.69;;;21.30;64.09
35704;BME280;21820;51.112;13.762;2022-10-16T10:15:04;99547.69;;;21.30;63.47
35704;BME280;21820;51.112;13.762;2022-10-16T10:17:31;99549.63;;;21.28;63.81
35704;BME280;21820;51.112;13.762;2022-10-16T10:19:57;99549.31;;;21.31;63.77
35704;BME280;21820;51.112;13.762;2022-10-16T10:24:55;99566.25;;;21.27;63.75
35704;BME280;21820;51.112;13.762;2022-10-16T10:27:20;99567.91;;;21.28;63.67
35704;BME280;21820;51.112;13.762;2022-10-16T10:29:50;99563.50;;;21.29;63.87
35704;BME280;21820;51.112;13.762;2022-10-16T10:37:34;99575.06;;;21.26;64.29
35704;BME280;21820;51.112;13.762;2022-10-16T10:42:33;99564.31;;;21.29;63.37
35704;BME280;21820;51.112;13.762;2022-10-16T10:47:47;99569.56;;;21.29;63.95
35704;BME280;21820;51.112;13.762;2022-10-16T11:08:48;99574.09;;;21.27;64.29
35704;BME280;21820;51.112;13.762;2022-10-16T11:16:17;99574.94;;;21.28;64.14
35704;BME280;21820;51.112;13.762;2022-10-16T11:21:14;99554.84;;;21.19;63.83
35704;BME280;21820;51.112;13.762;2022-10-16T11:23:43;99554.56;;;21.22;64.14
35704;BME280;21820;51.112;13.762;2022-10-16T11:26:16;99570.09;;;21.33;63.82
35704;BME280;21820;51.112;13.762;2022-10-16T11:28:48;99577.13;;;21.32;63.84
35704;BME280;21820;51.112;13.762;2022-10-16T11:31:19;99566.81;;;21.31;64.17
35704;BME280;21820;51.112;13.762;2022-10-16T11:33:52;99579.06;;;21.30;64.52
35704;BME280;21820;51.112;13.762;2022-10-16T11:36:21;99573.28;;;21.27;63.99
35704;BME280;21820;51.112;13.762;2022-10-16T11:41:47;99575.63;;;21.30;63.75
35704;BME280;21820;51.112;13.762;2022-10-16T11:44:33;99589.53;;;21.30;63.71
35704;BME280;21820;51.112;13.762;2022-10-16T11:49:43;99601.91;;;21.28;64.07
35704;BME280;21820;51.112;13.762;2022-10-16T11:54:43;99602.84;;;21.27;63.52
35704;BME280;21820;51.112;13.762;2022-10-16T11:57:53;99606.03;;;21.31;64.02
35704;BME280;21820;51.112;13.762;2022-10-16T12:07:41;99591.31;;;21.20;63.80
35704;BME280;21820;51.112;13.762;2022-10-16T12:10:22;99612.38;;;21.28;63.59
35704;BME280;21820;51.112;13.762;2022-10-16T12:12:47;99607.13;;;21.28;64.42
35704;BME280;21820;51.112;13.762;2022-10-16T12:17:47;99603.00;;;21.26;64.07
35704;BME280;21820;51.112;13.762;2022-10-16T12:22:42;99602.72;;;21.29;63.89
35704;BME280;21820;51.112;13.762;2022-10-16T12:25:19;99593.38;;;21.26;64.69
35704;BME280;21820;51.112;13.762;2022-10-16T12:27:45;99603.53;;;21.29;64.36
35704;BME280;21820;51.112;13.762;2022-10-16T12:30:20;99600.00;;;21.30;63.73
35704;BME280;21820;51.112;13.762;2022-10-16T12:32:52;99609.47;;;21.31;63.56
35704;BME280;21820;51.112;13.762;2022-10-16T12:35:22;99616.47;;;21.31;64.14
35704;BME280;21820;51.112;13.762;2022-10-16T12:37:48;99597.50;;;21.19;64.47
35704;BME280;21820;51.112;13.762;2022-10-16T12:40:28;99607.13;;;21.28;64.43
35704;BME280;21820;51.112;13.762;2022-10-16T12:42:54;99610.69;;;21.27;64.59
35704;BME280;21820;51.112;13.762;2022-10-16T12:45:30;99610.84;;;21.26;64.17
35704;BME280;21820;51.112;13.762;2022-10-16T12:47:56;99614.00;;;21.29;63.85
35704;BME280;21820;51.112;13.762;2022-10-16T12:50:43;99614.28;;;21.26;63.72
35704;BME280;21820;51.112;13.762;2022-10-16T12:53:20;99621.16;;;21.27;63.81
35704;BME280;21820;51.112;13.762;2022-10-16T12:55:52;99626.53;;;21.26;63.88
35704;BME280;21820;51.112;13.762;2022-10-16T12:58:41;99623.63;;;21.29;64.27
35704;BME280;21820;51.112;13.762;2022-10-16T13:01:16;99606.03;;;21.21;64.06
35704;BME280;21820;51.112;13.762;2022-10-16T13:06:42;99616.91;;;21.17;63.91
35704;BME280;21820;51.112;13.762;2022-10-16T13:12:05;99636.84;;;21.27;64.55
35704;BME280;21820;51.112;13.762;2022-10-16T13:19:40;99635.63;;;21.31;64.24
35704;BME280;21820;51.112;13.762;2022-10-16T13:25:02;99635.75;;;21.30;63.79
35704;BME280;21820;51.112;13.762;2022-10-16T13:27:41;99633.00;;;21.31;63.90
35704;BME280;21820;51.112;13.762;2022-10-16T13:30:20;99629.69;;;21.29;63.69
35704;BME280;21820;51.112;13.762;2022-10-16T13:32:47;99629.97;;;21.26;64.58
35704;BME280;21820;51.112;13.762;2022-10-16T13:35:47;99627.09;;;21.20;63.75
35704;BME280;21820;51.112;13.762;2022-10-16T13:38:08;99635.06;;;21.28;64.07
35704;BME280;21820;51.112;13.762;2022-10-16T13:40:36;99638.53;;;21.28;64.33
35704;BME280;21820;51.112;13.762;2022-10-16T13:43:01;99639.22;;;21.30;63.99
35704;BME280;21820;51.112;13.762;2022-10-16T13:45:26;99626.25;;;21.19;64.51
35704;BME280;21820;51.112;13.762;2022-10-16T13:48:02;99641.28;;;21.27;64.65
35704;BME280;21820;51.112;13.762;2022-10-16T13:50:27;99636.84;;;21.27;64.35
35704;BME280;21820;51.112;13.762;2022-10-16T13:53:02;99640.28;;;21.28;64.36
35704;BME280;21820;51.112;13.762;2022-10-16T13:55:28;99627.22;;;21.18;64.35
35704;BME280;21820;51.112;13.762;2022-10-16T13:57:53;99652.53;;;21.27;64.18
35704;BME280;21820;51.112;13.762;2022-10-16T14:00:29;99650.63;;;21.29;63.89
35704;BME280;21820;51.112;13.762;2022-10-16T14:03:04;99630.78;;;21.17;64.59
35704;BME280;21820;51.112;13.762;2022-10-16T14:05:30;99657.75;;;21.27;64.43
35704;BME280;21820;51.112;13.762;2022-10-16T14:07:56;99656.69;;;21.30;64.56
35704;BME280;21820;51.112;13.762;2022-10-16T14:10:24;99663.69;;;21.29;64.45
35704;BME280;21820;51.112;13.762;2022-10-16T14:13:00;99659.28;;;21.30;63.75
35704;BME280;21820;51.112;13.762;2022-10-16T14:15:26;99660.25;;;21.29;64.40
35704;BME280;21820;51.112;13.762;2022-10-16T14:17:51;99659.16;;;21.31;63.76
35704;BME280;21820;51.112;13.762;2022-10-16T14:20:17;99659.16;;;21.31;64.24
35704;BME280;21820;51.112;13.762;2022-10-16T14:22:43;99664.38;;;21.31;63.98
35704;BME280;21820;51.112;13.762;2022-10-16T14:27:43;99649.50;;;21.22;64.07
35704;BME280;21820;51.112;13.762;2022-10-16T14:30:17;99656.69;;;21.30;64.42
35704;BME280;21820;51.112;13.762;2022-10-16T14:32:52;99654.06;;;21.30;63.84
35704;BME280;21820;51.112;13.762;2022-10-16T14:35:25;99655.72;;;21.31;63.99
35704;BME280;21820;51.112;13.762;2022-10-16T14:37:51;99660.13;;;21.30;64.34
35704;BME280;21820;51.112;13.762;2022-10-16T14:40:17;99664.38;;;21.31;63.61